sensor_id;sensor_type;location;lat;lon;timestamp;pressure;altitude;pressure_sealevel;temperature;humidity
3960;BME280;1994;48.640;8.894;2022-09-09T00:04:33;95831.13;;;15.59;77.39
3960;BME280;1994;48.640;8.894;2022-09-09T00:16:19;95833.19;;;15.57;76.58
3960;BME280;1994;48.640;8.894;2022-09-09T00:19:30;95827.16;;;15.66;76.22
3960;BME280;1994;48.640;8.894;2022-09-09T00:22:20;95820.88;;;15.67;76.71
3960;BME280;1994;48.640;8.894;2022-09-09T00:24:57;95822.63;;;15.77;76.77
3960;BME280;1994;48.640;8.894;2022-09-09T00:27:38;95820.47;;;15.84;76.81
3960;BME280;1994;48.640;8.894;2022-09-09T00:30:24;95812.09;;;15.87;75.90
3960;BME280;1994;48.640;8.894;2022-09-09T00:33:00;95829.88;;;15.85;75.85
3960;BME280;1994;48.640;8.894;2022-09-09T00:35:42;95823.13;;;15.79;76.10
3960;BME280;1994;48.640;8.894;2022-09-09T00:38:38;95820.19;;;15.90;75.59
3960;BME280;1994;48.640;8.894;2022-09-09T00:44:31;95816.78;;;15.90;76.46
3960;BME280;1994;48.640;8.894;2022-09-09T00:57:03;95813.56;;;16.03;75.72
3960;BME280;1994;48.640;8.894;2022-09-09T01:02:28;95825.50;;;16.09;75.32
3960;BME280;1994;48.640;8.894;2022-09-09T01:05:10;95825.75;;;16.12;75.17
3960;BME280;1994;48.640;8.894;2022-09-09T01:07:40;95834.63;;;16.11;75.45
3960;BME280;1994;48.640;8.894;2022-09-09T01:10:49;95833.31;;;16.14;75.20
3960;BME280;1994;48.640;8.894;2022-09-09T01:13:32;95834.91;;;16.10;75.24
3960;BME280;1994;48.640;8.894;2022-09-09T01:16:06;95832.84;;;16.07;75.30
3960;BME280;1994;48.640;8.894;2022-09-09T01:18:37;95835.97;;;16.09;75.45
3960;BME280;1994;48.640;8.894;2022-09-09T01:21:34;95835.97;;;16.09;75.34
3960;BME280;1994;48.640;8.894;2022-09-09T01:24:26;95834.94;;;16.05;75.57
3960;BME280;1994;48.640;8.894;2022-09-09T01:27:01;95826.63;;;16.03;75.46
3960;BME280;1994;48.640;8.894;2022-09-09T01:29:29;95828.38;;;16.07;75.51
3960;BME280;1994;48.640;8.894;2022-09-09T01:32:37;95834.44;;;16.03;75.23
3960;BME280;1994;48.640;8.894;2022-09-09T01:34:50;95837.06;;;16.03;75.38
3960;BME280;1994;48.640;8.894;2022-09-09T01:37:17;95838.09;;;16.07;75.03
3960;BME280;1994;48.640;8.894;2022-09-09T01:39:44;95832.59;;;16.03;75.13
3960;BME280;1994;48.640;8.894;2022-09-09T01:42:13;95829.72;;;16.05;74.83
3960;BME280;1994;48.640;8.894;2022-09-09T01:44:40;95829.94;;;16.08;74.88
3960;BME280;1994;48.640;8.894;2022-09-09T01:47:06;95829.19;;;16.08;75.42
3960;BME280;1994;48.640;8.894;2022-09-09T01:49:32;95836.47;;;16.11;75.24
3960;BME280;1994;48.640;8.894;2022-09-09T01:51:58;95845.84;;;16.12;75.12
3960;BME280;1994;48.640;8.894;2022-09-09T01:54:31;95838.81;;;16.12;75.22
3960;BME280;1994;48.640;8.894;2022-09-09T02:00:12;95828.53;;;16.21;73.38
3960;BME280;1994;48.640;8.894;2022-09-09T02:03:08;95829.38;;;16.16;73.76
3960;BME280;1994;48.640;8.894;2022-09-09T02:05:49;95830.97;;;16.12;73.25
3960;BME280;1994;48.640;8.894;2022-09-09T02:08:26;95823.00;;;15.94;73.98
3960;BME280;1994;48.640;8.894;2022-09-09T02:11:17;95835.88;;;15.85;75.17
3960;BME280;1994;48.640;8.894;2022-09-09T02:13:48;95849.28;;;15.74;75.75
3960;BME280;1994;48.640;8.894;2022-09-09T02:16:24;95852.94;;;15.73;76.32
3960;BME280;1994;48.640;8.894;2022-09-09T02:19:13;95849.59;;;15.67;77.09
3960;BME280;1994;48.640;8.894;2022-09-09T02:21:42;95849.91;;;15.61;77.03
3960;BME280;1994;48.640;8.894;2022-09-09T02:24:11;95848.81;;;15.67;76.47
3960;BME280;1994;48.640;8.894;2022-09-09T02:26:42;95839.38;;;15.71;76.62
3960;BME280;1994;48.640;8.894;2022-09-09T02:29:19;95842.53;;;15.68;76.76
3960;BME280;1994;48.640;8.894;2022-09-09T02:31:47;95847.00;;;15.67;76.63
3960;BME280;1994;48.640;8.894;2022-09-09T02:34:18;95847.25;;;15.66;76.89
3960;BME280;1994;48.640;8.894;2022-09-09T02:36:47;95838.91;;;15.64;77.04
3960;BME280;1994;48.640;8.894;2022-09-09T02:39:13;95838.13;;;15.63;77.06
3960;BME280;1994;48.640;8.894;2022-09-09T02:41:41;95837.44;;;15.53;77.32
3960;BME280;1994;48.640;8.894;2022-09-09T02:44:16;95830.72;;;15.42;78.08
3960;BME280;1994;48.640;8.894;2022-09-09T02:50:25;95832.25;;;15.43;77.80
3960;BME280;1994;48.640;8.894;2022-09-09T02:53:18;95815.03;;;15.42;77.90
3960;BME280;1994;48.640;8.894;2022-09-09T02:55:52;95816.38;;;15.34;78.30
3960;BME280;1994;48.640;8.894;2022-09-09T02:58:20;95831.31;;;15.19;78.81
3960;BME280;1994;48.640;8.894;2022-09-09T03:00:49;95831.84;;;15.16;79.19
3960;BME280;1994;48.640;8.894;2022-09-09T03:03:17;95833.72;;;15.05;79.25
3960;BME280;1994;48.640;8.894;2022-09-09T03:05:44;95831.66;;;15.02;79.22
3960;BME280;1994;48.640;8.894;2022-09-09T03:08:10;95823.06;;;14.92;79.88
3960;BME280;1994;48.640;8.894;2022-09-09T03:10:36;95832.47;;;14.93;79.78
3960;BME280;1994;48.640;8.894;2022-09-09T03:13:03;95835.06;;;14.98;79.69
3960;BME280;1994;48.640;8.894;2022-09-09T03:15:32;95835.06;;;14.98;79.63
3960;BME280;1994;48.640;8.894;2022-09-09T03:17:58;95827.25;;;14.93;79.47
3960;BME280;1994;48.640;8.894;2022-09-09T03:20:27;95831.94;;;14.96;79.61
3960;BME280;1994;48.640;8.894;2022-09-09T03:22:54;95828.38;;;14.77;80.19
3960;BME280;1994;48.640;8.894;2022-09-09T03:25:21;95829.91;;;14.78;80.58
3960;BME280;1994;48.640;8.894;2022-09-09T03:27:50;95830.97;;;14.82;80.48
3960;BME280;1994;48.640;8.894;2022-09-09T03:30:16;95826.25;;;14.84;80.22
3960;BME280;1994;48.640;8.894;2022-09-09T03:32:41;95828.59;;;14.85;80.54
3960;BME280;1994;48.640;8.894;2022-09-09T03:35:08;95836.69;;;14.79;80.96
3960;BME280;1994;48.640;8.894;2022-09-09T03:37:34;95829.13;;;14.82;80.77
3960;BME280;1994;48.640;8.894;2022-09-09T03:40:00;95834.34;;;14.77;80.90
3960;BME280;1994;48.640;8.894;2022-09-09T03:42:26;95840.59;;;14.81;81.19
3960;BME280;1994;48.640;8.894;2022-09-09T03:44:52;95844.00;;;14.77;81.15
3960;BME280;1994;48.640;8.894;2022-09-09T03:47:20;95831.00;;;14.72;81.05
3960;BME280;1994;48.640;8.894;2022-09-09T03:49:47;95836.72;;;14.69;81.40
3960;BME280;1994;48.640;8.894;2022-09-09T03:52:14;95833.63;;;14.57;82.30
3960;BME280;1994;48.640;8.894;2022-09-09T03:54:41;95834.13;;;14.64;82.17
3960;BME280;1994;48.640;8.894;2022-09-09T03:57:09;95832.06;;;14.66;82.56
3960;BME280;1994;48.640;8.894;2022-09-09T03:59:36;95834.66;;;14.61;82.51
3960;BME280;1994;48.640;8.894;2022-09-09T04:02:02;95841.44;;;14.62;82.45
3960;BME280;1994;48.640;8.894;2022-09-09T04:04:28;95834.94;;;14.54;82.70
3960;BME280;1994;48.640;8.894;2022-09-09T04:06:53;95834.44;;;14.57;83.11
3960;BME280;1994;48.640;8.894;2022-09-09T04:09:19;95839.09;;;14.60;83.45
3960;BME280;1994;48.640;8.894;2022-09-09T04:11:45;95839.88;;;14.61;83.26
3960;BME280;1994;48.640;8.894;2022-09-09T04:14:12;95841.19;;;14.63;83.03
3960;BME280;1994;48.640;8.894;2022-09-09T04:16:38;95839.88;;;14.61;82.84
3960;BME280;1994;48.640;8.894;2022-09-09T04:19:05;95844.56;;;14.64;83.13
3960;BME280;1994;48.640;8.894;2022-09-09T04:21:32;95844.56;;;14.64;83.40
3960;BME280;1994;48.640;8.894;2022-09-09T04:23:57;95839.09;;;14.60;83.40
3960;BME280;1994;48.640;8.894;2022-09-09T04:26:23;95836.72;;;14.69;83.05
3960;BME280;1994;48.640;8.894;2022-09-09T04:28:49;95841.94;;;14.69;83.15
3960;BME280;1994;48.640;8.894;2022-09-09T04:31:24;95837.28;;;14.66;83.66
3960;BME280;1994;48.640;8.894;2022-09-09T04:33:51;95843.50;;;14.70;83.45
3960;BME280;1994;48.640;8.894;2022-09-09T04:36:17;95842.97;;;14.73;82.98
3960;BME280;1994;48.640;8.894;2022-09-09T04:38:46;95834.88;;;14.79;83.01
3960;BME280;1994;48.640;8.894;2022-09-09T04:41:14;95838.75;;;14.87;82.85
3960;BME280;1994;48.640;8.894;2022-09-09T04:43:40;95845.03;;;14.81;82.41
3960;BME280;1994;48.640;8.894;2022-09-09T04:46:06;95845.06;;;14.71;83.13
3960;BME280;1994;48.640;8.894;2022-09-09T04:48:32;95853.41;;;14.63;83.33
3960;BME280;1994;48.640;8.894;2022-09-09T04:51:04;95853.19;;;14.59;84.04
3960;BME280;1994;48.640;8.894;2022-09-09T04:53:31;95849.75;;;14.64;84.09
3960;BME280;1994;48.640;8.894;2022-09-09T04:56:12;95851.38;;;14.60;84.25
3960;BME280;1994;48.640;8.894;2022-09-09T04:58:39;95857.88;;;14.62;84.42
3960;BME280;1994;48.640;8.894;2022-09-09T05:01:19;95859.94;;;14.70;84.47
3960;BME280;1994;48.640;8.894;2022-09-09T05:03:46;95855.75;;;14.74;83.90
3960;BME280;1994;48.640;8.894;2022-09-09T05:06:16;95853.41;;;14.73;83.53
3960;BME280;1994;48.640;8.894;2022-09-09T05:08:43;95848.69;;;14.80;83.77
3960;BME280;1994;48.640;8.894;2022-09-09T05:11:24;95850.75;;;14.93;83.38
3960;BME280;1994;48.640;8.894;2022-09-09T05:13:52;95848.63;;;14.95;83.22
3960;BME280;1994;48.640;8.894;2022-09-09T05:16:18;95859.03;;;15.05;83.17
3960;BME280;1994;48.640;8.894;2022-09-09T05:18:45;95859.50;;;15.17;83.05
3960;BME280;1994;48.640;8.894;2022-09-09T05:21:15;95856.88;;;15.17;82.40
3960;BME280;1994;48.640;8.894;2022-09-09T05:23:41;95861.09;;;15.08;82.52
3960;BME280;1994;48.640;8.894;2022-09-09T05:26:12;95859.56;;;15.02;82.92
3960;BME280;1994;48.640;8.894;2022-09-09T05:28:39;95865.81;;;15.01;83.04
3960;BME280;1994;48.640;8.894;2022-09-09T05:31:07;95875.47;;;15.00;83.39
3960;BME280;1994;48.640;8.894;2022-09-09T05:33:35;95871.59;;;14.98;83.78
3960;BME280;1994;48.640;8.894;2022-09-09T05:36:07;95871.59;;;14.93;84.08
3960;BME280;1994;48.640;8.894;2022-09-09T05:38:34;95880.50;;;14.87;84.36
3960;BME280;1994;48.640;8.894;2022-09-09T05:41:07;95877.31;;;14.95;83.90
3960;BME280;1994;48.640;8.894;2022-09-09T05:43:33;95878.88;;;14.96;84.20
3960;BME280;1994;48.640;8.894;2022-09-09T05:46:13;95878.88;;;15.01;83.81
3960;BME280;1994;48.640;8.894;2022-09-09T05:48:42;95874.69;;;15.05;83.97
3960;BME280;1994;48.640;8.894;2022-09-09T05:51:14;95876.22;;;15.11;83.93
3960;BME280;1994;48.640;8.894;2022-09-09T05:53:44;95874.13;;;15.13;83.55
3960;BME280;1994;48.640;8.894;2022-09-09T05:56:22;95881.16;;;15.17;83.58
3960;BME280;1994;48.640;8.894;2022-09-09T05:58:49;95877.19;;;15.25;83.21
3960;BME280;1994;48.640;8.894;2022-09-09T06:01:26;95875.63;;;15.24;83.77
3960;BME280;1994;48.640;8.894;2022-09-09T06:03:52;95873.00;;;15.29;83.50
3960;BME280;1994;48.640;8.894;2022-09-09T06:06:22;95881.38;;;15.36;83.26
3960;BME280;1994;48.640;8.894;2022-09-09T06:08:51;95885.00;;;15.40;83.44
3960;BME280;1994;48.640;8.894;2022-09-09T06:11:20;95888.16;;;15.37;83.81
3960;BME280;1994;48.640;8.894;2022-09-09T06:13:47;95874.03;;;15.43;83.61
3960;BME280;1994;48.640;8.894;2022-09-09T06:16:20;95887.63;;;15.35;84.08
3960;BME280;1994;48.640;8.894;2022-09-09T06:18:45;95885.53;;;15.37;84.53
3960;BME280;1994;48.640;8.894;2022-09-09T06:21:24;95879.50;;;15.41;84.14
3960;BME280;1994;48.640;8.894;2022-09-09T06:23:50;95878.13;;;15.59;83.78
3960;BME280;1994;48.640;8.894;2022-09-09T06:26:22;95883.75;;;15.76;82.73
3960;BME280;1994;48.640;8.894;2022-09-09T06:28:51;95880.06;;;15.82;82.79
3960;BME280;1994;48.640;8.894;2022-09-09T06:31:23;95883.63;;;15.96;82.17
3960;BME280;1994;48.640;8.894;2022-09-09T06:33:51;95880.41;;;16.04;81.91
3960;BME280;1994;48.640;8.894;2022-09-09T06:36:20;95886.69;;;16.03;81.08
3960;BME280;1994;48.640;8.894;2022-09-09T06:38:46;95881.44;;;16.08;81.24
3960;BME280;1994;48.640;8.894;2022-09-09T06:41:16;95883.44;;;16.16;80.75
3960;BME280;1994;48.640;8.894;2022-09-09T06:43:42;95877.69;;;16.19;80.62
3960;BME280;1994;48.640;8.894;2022-09-09T06:46:13;95879.78;;;16.17;80.40
3960;BME280;1994;48.640;8.894;2022-09-09T06:48:40;95882.75;;;16.05;80.81
3960;BME280;1994;48.640;8.894;2022-09-09T06:51:18;95884.09;;;16.03;81.17
3960;BME280;1994;48.640;8.894;2022-09-09T06:53:45;95888.53;;;16.02;81.76
3960;BME280;1994;48.640;8.894;2022-09-09T06:56:41;95891.91;;;16.08;81.49
3960;BME280;1994;48.640;8.894;2022-09-09T06:59:09;95891.84;;;16.13;81.69
3960;BME280;1994;48.640;8.894;2022-09-09T07:01:40;95882.34;;;16.22;81.95
3960;BME280;1994;48.640;8.894;2022-09-09T07:04:07;95879.78;;;16.17;81.55
3960;BME280;1994;48.640;8.894;2022-09-09T07:06:37;95875.63;;;16.16;82.16
3960;BME280;1994;48.640;8.894;2022-09-09T07:09:07;95885.47;;;16.29;81.03
3960;BME280;1994;48.640;8.894;2022-09-09T07:11:41;95891.47;;;16.24;81.79
3960;BME280;1994;48.640;8.894;2022-09-09T07:14:08;95897.03;;;16.18;81.28
3960;BME280;1994;48.640;8.894;2022-09-09T07:16:34;95892.72;;;16.32;81.57
3960;BME280;1994;48.640;8.894;2022-09-09T07:19:03;95886.91;;;16.45;80.82
3960;BME280;1994;48.640;8.894;2022-09-09T07:21:31;95891.94;;;16.65;80.60
3960;BME280;1994;48.640;8.894;2022-09-09T07:23:57;95886.06;;;16.78;79.89
3960;BME280;1994;48.640;8.894;2022-09-09T07:26:26;95890.94;;;16.84;79.89
3960;BME280;1994;48.640;8.894;2022-09-09T07:28:52;95893.63;;;17.03;79.44
3960;BME280;1994;48.640;8.894;2022-09-09T07:31:25;95889.03;;;17.18;78.87
3960;BME280;1994;48.640;8.894;2022-09-09T07:33:52;95891.72;;;17.32;78.35
3960;BME280;1994;48.640;8.894;2022-09-09T07:36:39;95899.00;;;17.40;77.39
3960;BME280;1994;48.640;8.894;2022-09-09T07:39:10;95896.38;;;17.40;77.74
3960;BME280;1994;48.640;8.894;2022-09-09T07:41:43;95896.41;;;17.35;77.73
3960;BME280;1994;48.640;8.894;2022-09-09T07:44:13;95905.31;;;17.34;77.61
3960;BME280;1994;48.640;8.894;2022-09-09T07:46:40;95898.75;;;17.60;76.74
3960;BME280;1994;48.640;8.894;2022-09-09T07:49:08;95901.72;;;17.72;75.66
3960;BME280;1994;48.640;8.894;2022-09-09T07:51:37;95895.81;;;17.98;75.14
3960;BME280;1994;48.640;8.894;2022-09-09T07:54:08;95887.88;;;18.03;75.25
3960;BME280;1994;48.640;8.894;2022-09-09T07:56:35;95895.25;;;18.01;74.98
3960;BME280;1994;48.640;8.894;2022-09-09T07:59:03;95897.44;;;18.13;75.48
3960;BME280;1994;48.640;8.894;2022-09-09T08:01:38;95898.72;;;18.34;74.55
3960;BME280;1994;48.640;8.894;2022-09-09T08:04:19;95900.44;;;18.70;73.74
3960;BME280;1994;48.640;8.894;2022-09-09T08:06:54;95913.38;;;19.26;70.97
3960;BME280;1994;48.640;8.894;2022-09-09T08:09:21;95906.69;;;20.18;68.71
3960;BME280;1994;48.640;8.894;2022-09-09T08:11:47;95908.66;;;20.87;65.55
3960;BME280;1994;48.640;8.894;2022-09-09T08:14:13;95919.16;;;21.48;62.02
3960;BME280;1994;48.640;8.894;2022-09-09T08:16:43;95919.56;;;22.31;60.07
3960;BME280;1994;48.640;8.894;2022-09-09T08:19:09;95919.88;;;22.47;59.04
3960;BME280;1994;48.640;8.894;2022-09-09T08:21:38;95912.72;;;22.73;57.11
3960;BME280;1994;48.640;8.894;2022-09-09T08:24:06;95915.78;;;22.75;56.78
3960;BME280;1994;48.640;8.894;2022-09-09T08:26:41;95922.94;;;22.83;56.85
3960;BME280;1994;48.640;8.894;2022-09-09T08:29:09;95928.44;;;23.07;56.59
3960;BME280;1994;48.640;8.894;2022-09-09T08:31:42;95924.41;;;22.55;57.14
3960;BME280;1994;48.640;8.894;2022-09-09T08:34:09;95924.22;;;22.09;60.12
3960;BME280;1994;48.640;8.894;2022-09-09T08:36:41;95927.13;;;21.26;60.96
3960;BME280;1994;48.640;8.894;2022-09-09T08:39:10;95928.56;;;20.49;63.58
3960;BME280;1994;48.640;8.894;2022-09-09T08:53:04;95933.13;;;18.46;71.34
3960;BME280;1994;48.640;8.894;2022-09-09T08:55:49;95934.22;;;18.08;78.03
3960;BME280;1994;48.640;8.894;2022-09-09T08:58:31;95931.38;;;17.86;78.86
3960;BME280;1994;48.640;8.894;2022-09-09T09:10:14;95932.50;;;18.17;81.78
3960;BME280;1994;48.640;8.894;2022-09-09T09:12:43;95942.66;;;19.95;73.86
3960;BME280;1994;48.640;8.894;2022-09-09T09:15:23;95939.91;;;21.41;69.93
3960;BME280;1994;48.640;8.894;2022-09-09T09:17:50;95936.00;;;21.86;67.32
3960;BME280;1994;48.640;8.894;2022-09-09T09:23:18;95928.56;;;22.22;67.57
3960;BME280;1994;48.640;8.894;2022-09-09T09:25:46;95923.38;;;23.68;60.65
3960;BME280;1994;48.640;8.894;2022-09-09T09:28:25;95907.16;;;25.41;57.32
3960;BME280;1994;48.640;8.894;2022-09-09T09:31:11;95915.63;;;26.34;53.06
3960;BME280;1994;48.640;8.894;2022-09-09T09:33:49;95912.31;;;25.97;55.41
3960;BME280;1994;48.640;8.894;2022-09-09T09:36:16;95900.00;;;26.17;52.21
3960;BME280;1994;48.640;8.894;2022-09-09T09:39:00;95903.63;;;26.95;52.83
3960;BME280;1994;48.640;8.894;2022-09-09T09:41:42;95899.16;;;27.61;48.42
3960;BME280;1994;48.640;8.894;2022-09-09T09:44:31;95900.69;;;26.69;50.14
3960;BME280;1994;48.640;8.894;2022-09-09T09:47:15;95903.72;;;25.64;53.03
3960;BME280;1994;48.640;8.894;2022-09-09T09:49:58;95899.34;;;25.00;53.30
3960;BME280;1994;48.640;8.894;2022-09-09T09:52:33;95889.44;;;25.09;53.48
3960;BME280;1994;48.640;8.894;2022-09-09T09:55:04;95886.53;;;25.98;51.03
3960;BME280;1994;48.640;8.894;2022-09-09T09:57:33;95890.41;;;26.83;51.03
3960;BME280;1994;48.640;8.894;2022-09-09T10:00:18;95886.34;;;27.32;48.39
3960;BME280;1994;48.640;8.894;2022-09-09T10:02:47;95882.56;;;27.83;47.46
3960;BME280;1994;48.640;8.894;2022-09-09T10:05:21;95881.88;;;28.05;45.80
3960;BME280;1994;48.640;8.894;2022-09-09T10:08:10;95879.06;;;27.79;43.22
3960;BME280;1994;48.640;8.894;2022-09-09T10:11:27;95876.00;;;26.84;45.39
3960;BME280;1994;48.640;8.894;2022-09-09T10:19:37;95882.28;;;23.71;54.72
3960;BME280;1994;48.640;8.894;2022-09-09T10:36:48;95875.84;;;27.39;45.38
3960;BME280;1994;48.640;8.894;2022-09-09T10:39:39;95880.38;;;25.94;47.34
3960;BME280;1994;48.640;8.894;2022-09-09T10:42:16;95886.25;;;25.15;47.22
3960;BME280;1994;48.640;8.894;2022-09-09T10:50:55;95902.09;;;22.90;52.71
3960;BME280;1994;48.640;8.894;2022-09-09T10:54:00;95891.78;;;22.51;52.81
3960;BME280;1994;48.640;8.894;2022-09-09T10:56:30;95909.63;;;22.20;53.05
3960;BME280;1994;48.640;8.894;2022-09-09T10:59:14;95928.63;;;21.66;55.02
3960;BME280;1994;48.640;8.894;2022-09-09T11:01:49;95936.47;;;21.32;55.84
3960;BME280;1994;48.640;8.894;2022-09-09T11:04:42;95945.53;;;20.87;62.15
3960;BME280;1994;48.640;8.894;2022-09-09T11:07:18;95929.09;;;20.59;62.43
3960;BME280;1994;48.640;8.894;2022-09-09T11:10:00;95930.81;;;20.20;65.08
3960;BME280;1994;48.640;8.894;2022-09-09T11:12:29;95937.66;;;20.21;64.77
3960;BME280;1994;48.640;8.894;2022-09-09T11:15:15;95949.00;;;19.94;65.05
3960;BME280;1994;48.640;8.894;2022-09-09T11:17:48;95934.84;;;19.55;65.85
3960;BME280;1994;48.640;8.894;2022-09-09T11:20:15;95923.75;;;19.58;65.44
3960;BME280;1994;48.640;8.894;2022-09-09T11:23:01;95929.03;;;19.31;66.71
3960;BME280;1994;48.640;8.894;2022-09-09T11:25:43;95933.91;;;19.24;66.71
3960;BME280;1994;48.640;8.894;2022-09-09T11:34:53;95916.94;;;19.03;67.90
3960;BME280;1994;48.640;8.894;2022-09-09T11:40:34;95912.09;;;19.37;66.76
3960;BME280;1994;48.640;8.894;2022-09-09T11:43:13;95913.53;;;19.43;68.35
3960;BME280;1994;48.640;8.894;2022-09-09T11:45:42;95926.47;;;19.66;67.99
3960;BME280;1994;48.640;8.894;2022-09-09T11:51:08;95920.22;;;20.11;67.41
3960;BME280;1994;48.640;8.894;2022-09-09T11:53:47;95910.41;;;20.17;65.28
3960;BME280;1994;48.640;8.894;2022-09-09T11:59:03;95905.81;;;20.53;64.40
3960;BME280;1994;48.640;8.894;2022-09-09T12:04:28;95898.97;;;20.43;65.68
3960;BME280;1994;48.640;8.894;2022-09-09T12:07:01;95903.50;;;21.04;66.70
3960;BME280;1994;48.640;8.894;2022-09-09T12:14:54;95908.41;;;20.97;61.85
3960;BME280;1994;48.640;8.894;2022-09-09T12:17:26;95897.44;;;20.73;62.34
3960;BME280;1994;48.640;8.894;2022-09-09T12:20:22;95888.50;;;20.30;62.63
3960;BME280;1994;48.640;8.894;2022-09-09T12:23:06;95892.22;;;20.29;63.05
3960;BME280;1994;48.640;8.894;2022-09-09T12:26:37;95887.63;;;20.34;62.74
3960;BME280;1994;48.640;8.894;2022-09-09T12:32:10;95886.84;;;20.34;63.57
3960;BME280;1994;48.640;8.894;2022-09-09T12:34:48;95884.75;;;20.75;63.47
3960;BME280;1994;48.640;8.894;2022-09-09T12:37:38;95885.84;;;21.13;62.78
3960;BME280;1994;48.640;8.894;2022-09-09T12:42:45;95891.03;;;21.91;56.16
3960;BME280;1994;48.640;8.894;2022-09-09T12:45:23;95879.53;;;21.95;56.36
3960;BME280;1994;48.640;8.894;2022-09-09T12:48:14;95876.75;;;21.92;54.35
3960;BME280;1994;48.640;8.894;2022-09-09T12:50:49;95875.94;;;22.08;55.23
3960;BME280;1994;48.640;8.894;2022-09-09T12:53:27;95874.03;;;22.60;51.51
3960;BME280;1994;48.640;8.894;2022-09-09T12:56:08;95869.75;;;22.47;52.25
3960;BME280;1994;48.640;8.894;2022-09-09T12:58:47;95866.09;;;22.77;51.99
3960;BME280;1994;48.640;8.894;2022-09-09T13:01:30;95872.38;;;22.47;51.08
3960;BME280;1994;48.640;8.894;2022-09-09T13:03:56;95860.75;;;22.94;49.96
3960;BME280;1994;48.640;8.894;2022-09-09T13:06:29;95869.88;;;23.63;49.54
3960;BME280;1994;48.640;8.894;2022-09-09T13:09:01;95860.41;;;23.62;49.04
3960;BME280;1994;48.640;8.894;2022-09-09T13:11:42;95862.22;;;23.70;47.40
3960;BME280;1994;48.640;8.894;2022-09-09T13:14:24;95847.91;;;23.42;47.94
3960;BME280;1994;48.640;8.894;2022-09-09T13:16:56;95852.00;;;23.02;50.17
3960;BME280;1994;48.640;8.894;2022-09-09T13:19:23;95858.34;;;22.72;48.87
3960;BME280;1994;48.640;8.894;2022-09-09T13:21:53;95838.00;;;23.88;47.43
3960;BME280;1994;48.640;8.894;2022-09-09T13:24:33;95849.06;;;23.82;46.42
3960;BME280;1994;48.640;8.894;2022-09-09T13:27:20;95845.44;;;23.66;47.08
3960;BME280;1994;48.640;8.894;2022-09-09T13:29:54;95851.84;;;23.36;45.14
3960;BME280;1994;48.640;8.894;2022-09-09T13:32:24;95852.41;;;23.21;47.98
3960;BME280;1994;48.640;8.894;2022-09-09T13:34:58;95847.41;;;22.82;47.51
3960;BME280;1994;48.640;8.894;2022-09-09T13:37:36;95840.72;;;22.30;48.52
3960;BME280;1994;48.640;8.894;2022-09-09T13:40:05;95834.50;;;22.26;49.33
3960;BME280;1994;48.640;8.894;2022-09-09T13:42:40;95837.91;;;22.52;48.64
3960;BME280;1994;48.640;8.894;2022-09-09T13:45:17;95833.91;;;22.20;49.47
3960;BME280;1994;48.640;8.894;2022-09-09T13:47:46;95828.66;;;21.78;47.08
3960;BME280;1994;48.640;8.894;2022-09-09T13:50:29;95832.38;;;21.77;48.70
3960;BME280;1994;48.640;8.894;2022-09-09T13:52:58;95826.34;;;21.85;48.71
3960;BME280;1994;48.640;8.894;2022-09-09T13:55:26;95813.44;;;21.58;48.41
3960;BME280;1994;48.640;8.894;2022-09-09T14:00:24;95821.44;;;22.38;47.58
3960;BME280;1994;48.640;8.894;2022-09-09T14:02:51;95823.03;;;22.05;47.23
3960;BME280;1994;48.640;8.894;2022-09-09T14:05:19;95829.59;;;21.73;47.43
3960;BME280;1994;48.640;8.894;2022-09-09T14:07:46;95820.84;;;21.56;47.47
3960;BME280;1994;48.640;8.894;2022-09-09T14:10:12;95819.63;;;21.62;47.86
3960;BME280;1994;48.640;8.894;2022-09-09T14:12:38;95820.06;;;21.30;47.50
3960;BME280;1994;48.640;8.894;2022-09-09T14:15:06;95840.06;;;21.31;47.49
3960;BME280;1994;48.640;8.894;2022-09-09T14:17:32;95832.31;;;21.43;48.28
3960;BME280;1994;48.640;8.894;2022-09-09T14:19:59;95830.44;;;21.35;48.70
3960;BME280;1994;48.640;8.894;2022-09-09T14:22:25;95826.09;;;21.39;47.83
3960;BME280;1994;48.640;8.894;2022-09-09T14:24:51;95813.09;;;21.51;47.04
3960;BME280;1994;48.640;8.894;2022-09-09T14:27:17;95816.19;;;21.19;47.11
3960;BME280;1994;48.640;8.894;2022-09-09T14:29:44;95821.91;;;21.21;47.37
3960;BME280;1994;48.640;8.894;2022-09-09T14:32:11;95823.03;;;21.54;47.31
3960;BME280;1994;48.640;8.894;2022-09-09T14:34:36;95823.94;;;21.32;47.69
3960;BME280;1994;48.640;8.894;2022-09-09T14:37:02;95815.88;;;21.46;48.37
3960;BME280;1994;48.640;8.894;2022-09-09T14:39:28;95828.31;;;21.54;47.90
3960;BME280;1994;48.640;8.894;2022-09-09T14:41:54;95822.25;;;21.53;48.04
3960;BME280;1994;48.640;8.894;2022-09-09T14:44:20;95823.19;;;21.57;47.66
3960;BME280;1994;48.640;8.894;2022-09-09T14:46:47;95829.56;;;21.65;48.14
3960;BME280;1994;48.640;8.894;2022-09-09T14:49:15;95828.97;;;21.68;48.23
3960;BME280;1994;48.640;8.894;2022-09-09T14:51:41;95820.56;;;21.66;48.03
3960;BME280;1994;48.640;8.894;2022-09-09T14:54:07;95821.22;;;21.97;48.16
3960;BME280;1994;48.640;8.894;2022-09-09T14:56:34;95819.94;;;22.20;48.80
3960;BME280;1994;48.640;8.894;2022-09-09T14:59:00;95820.72;;;22.20;48.76
3960;BME280;1994;48.640;8.894;2022-09-09T15:01:29;95814.81;;;22.15;47.91
3960;BME280;1994;48.640;8.894;2022-09-09T15:04:04;95822.59;;;22.03;48.40
3960;BME280;1994;48.640;8.894;2022-09-09T15:06:33;95823.38;;;22.12;48.32
3960;BME280;1994;48.640;8.894;2022-09-09T15:09:00;95817.47;;;21.98;48.80
3960;BME280;1994;48.640;8.894;2022-09-09T15:11:28;95826.50;;;21.80;48.77
3960;BME280;1994;48.640;8.894;2022-09-09T15:13:56;95828.00;;;21.47;48.55
3960;BME280;1994;48.640;8.894;2022-09-09T15:16:26;95819.88;;;21.26;50.01
3960;BME280;1994;48.640;8.894;2022-09-09T15:18:55;95824.22;;;21.14;47.65
3960;BME280;1994;48.640;8.894;2022-09-09T15:21:25;95810.28;;;21.22;46.71
3960;BME280;1994;48.640;8.894;2022-09-09T15:23:51;95812.72;;;21.10;47.09
3960;BME280;1994;48.640;8.894;2022-09-09T15:26:18;95802.47;;;21.00;46.49
3960;BME280;1994;48.640;8.894;2022-09-09T15:28:45;95805.03;;;20.83;47.59
3960;BME280;1994;48.640;8.894;2022-09-09T15:31:22;95821.91;;;20.82;48.22
3960;BME280;1994;48.640;8.894;2022-09-09T15:33:56;95813.47;;;20.63;48.63
3960;BME280;1994;48.640;8.894;2022-09-09T15:36:47;95827.31;;;20.77;48.95
3960;BME280;1994;48.640;8.894;2022-09-09T15:39:17;95828.88;;;20.78;48.44
3960;BME280;1994;48.640;8.894;2022-09-09T15:41:44;95833.78;;;20.71;48.56
3960;BME280;1994;48.640;8.894;2022-09-09T15:44:11;95838.53;;;20.60;49.03
3960;BME280;1994;48.640;8.894;2022-09-09T15:46:49;95839.19;;;20.66;49.16
3960;BME280;1994;48.640;8.894;2022-09-09T15:49:24;95834.88;;;20.70;49.71